FRS111N EDDN-EDDM

Flight info

Callsign FRS111N
Flight time N/A
Altitude
Route
Aircraft C400

Departure

Time 2026-04-28 15:57
Airport Nuremberg Airport (EDDN)

Arrival

Time N/A
Airport Munich Airport (EDDM)
Time Latitude Longitude Altitude Speed Heading
2026-04-28 15:50 49.49493 11.06896 1021 ft 0 kts 282°
2026-04-28 15:52 49.49495 11.06893 1021 ft 4 kts 349°
2026-04-28 15:52 49.49515 11.06928 1020 ft 0 kts
2026-04-28 15:53 49.49524 11.06953 1020 ft 8 kts 90°
2026-04-28 15:53 49.49515 11.07060 1020 ft 13 kts 101°
2026-04-28 15:53 49.49523 11.07195 1020 ft 12 kts 32°
2026-04-28 15:54 49.49601 11.07212 1021 ft 16 kts
2026-04-28 15:54 49.49709 11.07230 1021 ft 14 kts 346°
2026-04-28 15:54 49.49749 11.07084 1018 ft 21 kts 277°
2026-04-28 15:54 49.49772 11.06852 1014 ft 22 kts 278°
2026-04-28 15:55 49.49794 11.06626 1012 ft 20 kts 278°
2026-04-28 15:55 49.49873 11.06503 1013 ft 12 kts 341°
2026-04-28 15:55 49.49904 11.06485 1013 ft 0 kts 341°
2026-04-28 15:56 49.49911 11.06481 1013 ft 6 kts 344°
2026-04-28 15:56 49.49970 11.06501 1012 ft 17 kts 41°
2026-04-28 15:56 49.49986 11.06641 1015 ft 25 kts 98°
2026-04-28 15:57 49.49928 11.07236 1022 ft 85 kts 98°
2026-04-28 15:57 49.49822 11.08364 1071 ft 124 kts 96°
2026-04-28 15:57 49.49667 11.09749 1360 ft 132 kts 97°
2026-04-28 15:57 49.49021 11.10460 1953 ft 138 kts 162°
2026-04-28 15:58 49.47921 11.10904 1921 ft 162 kts 154°
2026-04-28 15:58 49.46876 11.11545 2130 ft 169 kts 150°
2026-04-28 15:58 49.45837 11.12453 2156 ft 174 kts 142°
2026-04-28 15:58 49.44834 11.13479 2246 ft 169 kts 134°
2026-04-28 15:59 49.43929 11.14643 2308 ft 170 kts 133°
2026-04-28 15:59 49.43339 11.15448 2309 ft 173 kts 133°
2026-04-28 15:59 49.42217 11.17224 2299 ft 175 kts 129°
2026-04-28 15:59 49.41349 11.18553 2300 ft 177 kts 131°
2026-04-28 16:00 49.40494 11.19788 2710 ft 158 kts 133°
2026-04-28 16:00 49.39760 11.20857 3417 ft 133 kts 130°
2026-04-28 16:00 49.39127 11.21806 3938 ft 129 kts 130°
2026-04-28 16:00 49.38481 11.22776 4366 ft 130 kts 129°
2026-04-28 16:01 49.37836 11.23754 4853 ft 131 kts 128°
2026-04-28 16:01 49.37189 11.24737 5286 ft 131 kts 128°
2026-04-28 16:01 49.36347 11.25359 5688 ft 144 kts 165°
2026-04-28 16:01 49.35371 11.25676 6183 ft 143 kts 160°
2026-04-28 16:02 49.34405 11.26040 6686 ft 144 kts 160°
2026-04-28 16:02 49.33430 11.26407 7122 ft 144 kts 162°
2026-04-28 16:02 49.32472 11.26844 7547 ft 144 kts 156°
2026-04-28 16:02 49.31521 11.27351 7976 ft 146 kts 158°
2026-04-28 16:03 49.30565 11.27885 8418 ft 147 kts 156°
2026-04-28 16:03 49.29598 11.28426 8875 ft 148 kts 156°
2026-04-28 16:03 49.28629 11.29007 9314 ft 152 kts 156°
2026-04-28 16:03 49.27579 11.29665 9385 ft 175 kts 156°
2026-04-28 16:04 49.26399 11.30428 9386 ft 192 kts 156°
2026-04-28 16:04 49.25141 11.31249 9384 ft 201 kts 156°
2026-04-28 16:04 49.23841 11.32096 9383 ft 205 kts 156°
2026-04-28 16:04 49.22969 11.32663 9379 ft 207 kts 156°
2026-04-28 16:05 49.21187 11.33820 9378 ft 209 kts 156°
2026-04-28 16:05 49.19848 11.34687 9380 ft 209 kts 156°
2026-04-28 16:05 49.18504 11.35555 9382 ft 210 kts 156°
2026-04-28 16:05 49.17153 11.36421 9380 ft 210 kts 156°
2026-04-28 16:06 49.15809 11.37296 9378 ft 210 kts 156°
2026-04-28 16:06 49.14462 11.38164 9382 ft 210 kts 156°
2026-04-28 16:06 49.13110 11.39021 9374 ft 210 kts 156°
2026-04-28 16:06 49.11760 11.39881 9375 ft 210 kts 156°
2026-04-28 16:07 49.10410 11.40741 9378 ft 211 kts 156°
2026-04-28 16:07 49.09059 11.41603 9378 ft 210 kts 156°
2026-04-28 16:07 49.06384 11.43331 9375 ft 210 kts 156°
2026-04-28 16:08 49.05040 11.44204 9375 ft 210 kts 156°
2026-04-28 16:08 49.03693 11.45068 9368 ft 211 kts 156°
2026-04-28 16:08 49.02337 11.45926 9359 ft 211 kts 156°
2026-04-28 16:09 48.99632 11.47647 9358 ft 210 kts 156°
2026-04-28 16:09 48.98285 11.48513 9359 ft 210 kts 156°
2026-04-28 16:09 48.96932 11.49374 9361 ft 210 kts 156°
2026-04-28 16:10 48.94249 11.51114 9353 ft 210 kts 156°
2026-04-28 16:10 48.92902 11.51987 9350 ft 210 kts 156°
2026-04-28 16:10 48.90659 11.53438 9349 ft 211 kts 156°
2026-04-28 16:11 48.87961 11.55193 9351 ft 210 kts 156°
2026-04-28 16:11 48.85271 11.56951 9346 ft 210 kts 156°
2026-04-28 16:12 48.83028 11.58789 9320 ft 160 kts 121°
2026-04-28 16:12 48.82866 11.60467 9328 ft 174 kts 75°
2026-04-28 16:13 48.83987 11.64009 9349 ft 196 kts 66°
2026-04-28 16:13 48.84393 11.66020 9353 ft 202 kts 75°
2026-04-28 16:13 48.85076 11.70130 9354 ft 191 kts 75°
2026-04-28 16:14 48.85670 11.73805 9336 ft 159 kts 75°
2026-04-28 16:14 48.85835 11.76654 9330 ft 124 kts 123°
2026-04-28 16:15 48.84377 11.77854 9346 ft 130 kts 175°
2026-04-28 16:15 48.83476 11.77964 9350 ft 131 kts 175°
2026-04-28 16:15 48.82563 11.78063 9348 ft 132 kts 175°
2026-04-28 16:16 48.80781 11.78258 9150 ft 131 kts 175°
2026-04-28 16:16 48.79826 11.78359 8829 ft 139 kts 175°
2026-04-28 16:17 48.77952 11.78888 8373 ft 136 kts 164°
2026-04-28 16:17 48.77034 11.79224 8185 ft 135 kts 164°
2026-04-28 16:17 48.76130 11.79524 7968 ft 134 kts 163°
2026-04-28 16:17 48.75214 11.79780 7758 ft 133 kts 164°
2026-04-28 16:18 48.74305 11.80032 7458 ft 136 kts 163°
2026-04-28 16:18 48.73306 11.80304 6950 ft 152 kts 164°
2026-04-28 16:18 48.72277 11.80585 6691 ft 149 kts 165°
2026-04-28 16:18 48.71258 11.80872 6348 ft 150 kts 164°
2026-04-28 16:19 48.70226 11.81157 6008 ft 151 kts 164°
2026-04-28 16:19 48.69183 11.81438 5661 ft 153 kts 164°
2026-04-28 16:19 48.68128 11.81675 5326 ft 155 kts 170°
2026-04-28 16:19 48.67063 11.81788 5035 ft 152 kts 170°
2026-04-28 16:20 48.66007 11.81894 4719 ft 151 kts 170°
2026-04-28 16:20 48.64948 11.81808 4405 ft 150 kts 182°
2026-04-28 16:20 48.63843 11.81628 4418 ft 170 kts 181°
2026-04-28 16:20 48.62601 11.81465 4360 ft 188 kts 181°
2026-04-28 16:21 48.61231 11.81263 4101 ft 205 kts 180°
2026-04-28 16:21 48.59816 11.81105 3962 ft 203 kts 180°
2026-04-28 16:21 48.58415 11.81035 3822 ft 201 kts 177°
2026-04-28 16:21 48.57025 11.80965 3739 ft 200 kts 178°
2026-04-28 16:22 48.55617 11.80882 3688 ft 203 kts 178°
2026-04-28 16:22 48.54209 11.80797 3626 ft 199 kts 178°
2026-04-28 16:22 48.52843 11.80729 3403 ft 193 kts 178°
2026-04-28 16:22 48.51561 11.80648 3401 ft 173 kts 178°
2026-04-28 16:23 48.50442 11.80559 3388 ft 151 kts 178°
2026-04-28 16:23 48.49457 11.80460 3381 ft 134 kts 178°
2026-04-28 16:23 48.48545 11.80362 3383 ft 132 kts 178°
2026-04-28 16:23 48.47631 11.80269 3389 ft 130 kts 178°
2026-04-28 16:24 48.46734 11.80286 3264 ft 132 kts 172°
2026-04-28 16:24 48.45747 11.80393 2702 ft 153 kts 166°
2026-04-28 16:24 48.44664 11.80641 2394 ft 149 kts 166°
2026-04-28 16:24 48.43728 11.80846 2392 ft 126 kts 167°
2026-04-28 16:25 48.42864 11.81078 2384 ft 126 kts 166°
2026-04-28 16:25 48.42027 11.81307 2381 ft 120 kts 165°
2026-04-28 16:25 48.41225 11.81464 2380 ft 113 kts 166°
2026-04-28 16:25 48.40474 11.81567 2383 ft 105 kts 167°
2026-04-28 16:26 48.39744 11.81689 2392 ft 108 kts 166°
2026-04-28 16:26 48.38969 11.81821 2447 ft 108 kts 172°
2026-04-28 16:26 48.38344 11.81335 2372 ft 113 kts 242°
2026-04-28 16:26 48.38208 11.80119 2156 ft 127 kts 267°
2026-04-28 16:27 48.38108 11.78767 2289 ft 135 kts 261°
2026-04-28 16:27 48.37925 11.77229 2272 ft 164 kts 260°
2026-04-28 16:27 48.37305 11.73859 2398 ft 144 kts 219°
2026-04-28 16:28 48.36483 11.73446 2291 ft 115 kts 144°
2026-04-28 16:28 48.36249 11.74459 1958 ft 109 kts 93°
2026-04-28 16:28 48.36215 11.75565 1699 ft 101 kts 86°
2026-04-28 16:28 48.36268 11.76534 1542 ft 88 kts 82°
2026-04-28 16:29 48.36392 11.78174 1478 ft 99 kts 82°
2026-04-28 16:29 48.37604 11.78485 2241 ft 120 kts 343°
2026-04-28 16:30 48.38395 11.77794 2509 ft 130 kts 309°
2026-04-28 16:30 48.38401 11.76510 2379 ft 136 kts 244°
2026-04-28 16:30 48.38023 11.75168 2451 ft 139 kts 245°
2026-04-28 16:30 48.37660 11.73781 2600 ft 140 kts 252°
2026-04-28 16:31 48.37416 11.72573 2795 ft 114 kts 252°
2026-04-28 16:31 48.37213 11.71443 2851 ft 109 kts 259°
2026-04-28 16:31 48.37069 11.70289 2836 ft 113 kts 262°
2026-04-28 16:31 48.36926 11.69126 2763 ft 111 kts 260°
2026-04-28 16:32 48.36527 11.68233 2605 ft 103 kts 190°
2026-04-28 16:32 48.35746 11.69456 2477 ft 133 kts 82°
2026-04-28 16:32 48.35852 11.70777 2395 ft 134 kts 84°
2026-04-28 16:33 48.35969 11.72312 2278 ft 160 kts 84°
2026-04-28 16:33 48.36033 11.73349 2375 ft 129 kts 84°
2026-04-28 16:33 48.36130 11.74736 2053 ft 87 kts 83°
2026-04-28 16:33 48.36216 11.75764 1782 ft 105 kts 82°
2026-04-28 16:34 48.36296 11.76887 1532 ft 105 kts 83°
2026-04-28 16:34 48.36367 11.77883 1460 ft 85 kts 82°
2026-04-28 16:34 48.36430 11.78728 1463 ft 93 kts 83°
2026-04-28 16:34 48.36522 11.79865 1666 ft 118 kts 83°
2026-04-28 16:35 48.36580 11.81135 1997 ft 124 kts 84°
2026-04-28 16:35 48.36717 11.82401 2362 ft 125 kts 70°
2026-04-28 16:35 48.37462 11.83013 2672 ft 141 kts
2026-04-28 16:35 48.38466 11.82668 2835 ft 159 kts 328°
2026-04-28 16:36 48.38856 11.81094 3029 ft 168 kts 276°
2026-04-28 16:36 48.38756 11.79393 2887 ft 154 kts 261°
2026-04-28 16:36 48.38568 11.77827 2817 ft 153 kts 259°
2026-04-28 16:36 48.38290 11.76184 2832 ft 177 kts 252°
2026-04-28 16:37 48.37926 11.74338 2948 ft 186 kts 256°
2026-04-28 16:37 48.37690 11.72535 3196 ft 157 kts 261°
2026-04-28 16:37 48.37569 11.71028 3250 ft 136 kts 266°
2026-04-28 16:38 48.36237 11.70153 2996 ft 123 kts 153°
2026-04-28 16:38 48.35602 11.70841 2742 ft 108 kts 83°
2026-04-28 16:38 48.35829 11.71803 2474 ft 82 kts 73°
2026-04-28 16:38 48.35954 11.72642 2267 ft 85 kts 79°
2026-04-28 16:39 48.36070 11.73658 2051 ft 119 kts 81°
2026-04-28 16:39 48.36155 11.74832 1773 ft 108 kts 84°
2026-04-28 16:39 48.36220 11.75876 1612 ft 95 kts 83°
2026-04-28 16:39 48.36285 11.76819 1488 ft 85 kts 82°
2026-04-28 16:40 48.36346 11.77617 1463 ft 76 kts 85°
2026-04-28 16:40 48.36423 11.78579 1608 ft 99 kts 83°
2026-04-28 16:40 48.36482 11.79707 1924 ft 111 kts 85°
2026-04-28 16:40 48.36534 11.80922 2264 ft 121 kts 84°
2026-04-28 16:41 48.37074 11.81864 2385 ft 145 kts
2026-04-28 16:41 48.38134 11.81687 2548 ft 156 kts 356°